Terminal Aerodrome Forecast
Issued by NWS Missoula, MT

Home | Current Version | Previous Version | Text Only | Print | Product List | Glossary On
Versions: 1 2 3 4 5 6 7 8 9 10 11 12 13 14 15 16
000
FTUS45 KMSO 092338
TAFGPI
TAF
KGPI 092338Z 1000/1024 01008KT 4SM -SN BR SCT015 BKN030 OVC040
     FM100500 01006KT 2SM -SN BR SCT005 BKN015 OVC030
     FM100800 01004KT 1SM -SN BR OVC015
     FM101300 VRB04KT 1/2SM SN OVC015=

USA.gov is the U.S. government's official web portal to all federal, state and local government web resources and services.